Wetterdaten: Woche 28.05.12 - 03.06.12 (KW22)
Datum Zeit Temp. Innen Temp. Aussen UV X Diff Temp. Feuchte Inne Feuchte Auss Sonnenschein Luftdruck Regen ab 0,1 Wind Sonnenschein T Regendauer Windben
28.05.2012 00:00 24,6 C 16,7 C 0,0 UV-I 0,0 C 48 % 72 % 0 % 1016,4 hPa 0,0 l/m 0,0 km/h (0 Bft) 0,00 h 0,00 h 0,0 km/h (0 Bft)
28.05.2012 01:00 24,4 C 15,7 C 0,0 UV-I 0,0 C 49 % 78 % 0 % 1016,2 hPa 0,0 l/m 0,0 km/h (0 Bft) 0,00 h 0,00 h 0,0 km/h (0 Bft)
28.05.2012 02:00 24,2 C 15,4 C 0,0 UV-I 0,0 C 50 % 81 % 0 % 1015,9 hPa 0,0 l/m 0,0 km/h (0 Bft) 0,00 h 0,00 h 0,0 km/h (0 Bft)
28.05.2012 03:00 24,1 C 15,2 C 0,0 UV-I 0,0 C 51 % 83 % 0 % 1015,5 hPa 0,0 l/m 0,0 km/h (0 Bft) 0,00 h 0,00 h 0,0 km/h (0 Bft)
28.05.2012 04:00 24,0 C 14,6 C 0,0 UV-I 0,0 C 51 % 84 % 0 % 1015,5 hPa 0,0 l/m 0,0 km/h (0 Bft) 0,00 h 0,00 h 0,0 km/h (0 Bft)
28.05.2012 05:00 23,8 C 13,8 C 0,0 UV-I 0,0 C 52 % 86 % 0 % 1015,1 hPa 0,0 l/m 0,0 km/h (0 Bft) 0,00 h 0,00 h 0,0 km/h (0 Bft)
28.05.2012 06:00 23,6 C 13,5 C 0,0 UV-I 0,0 C 52 % 89 % 0 % 1015,4 hPa 0,0 l/m 0,0 km/h (0 Bft) 0,00 h 0,00 h 0,0 km/h (0 Bft)
28.05.2012 07:00 23,6 C 14,9 C 0,2 UV-I 0,4 C 53 % 91 % 11 % 1015,6 hPa 0,0 l/m 0,5 km/h (0 Bft) 0,00 h 0,00 h 1,1 km/h (1 Bft)
28.05.2012 08:00 23,6 C 17,1 C 1,0 UV-I 6,2 C 54 % 91 % 84 % 1015,3 hPa 0,0 l/m 1,5 km/h (1 Bft) 0,77 h 0,00 h 4,2 km/h (1 Bft)
28.05.2012 09:00 23,8 C 19,8 C 2,8 UV-I 9,1 C 54 % 85 % 100 % 1015,4 hPa 0,0 l/m 2,2 km/h (1 Bft) 1,00 h 0,00 h 4,8 km/h (1 Bft)
28.05.2012 10:00 24,0 C 21,7 C 4,3 UV-I 8,4 C 54 % 76 % 100 % 1015,4 hPa 0,0 l/m 3,2 km/h (1 Bft) 1,00 h 0,00 h 7,3 km/h (2 Bft)
28.05.2012 11:00 24,2 C 23,2 C 4,0 UV-I 7,6 C 55 % 66 % 100 % 1015,0 hPa 0,0 l/m 5,5 km/h (1 Bft) 1,00 h 0,00 h 10,8 km/h (2 Bft)
28.05.2012 12:00 24,5 C 24,5 C 2,9 UV-I 6,8 C 54 % 59 % 100 % 1014,5 hPa 0,0 l/m 6,7 km/h (2 Bft) 1,00 h 0,00 h 12,3 km/h (3 Bft)
28.05.2012 13:00 24,9 C 25,5 C 2,7 UV-I 5,8 C 54 % 54 % 100 % 1014,3 hPa 0,0 l/m 6,4 km/h (2 Bft) 1,00 h 0,00 h 11,4 km/h (2 Bft)
28.05.2012 14:00 26,1 C 26,2 C 2,7 UV-I 5,1 C 52 % 51 % 100 % 1013,7 hPa 0,0 l/m 8,1 km/h (2 Bft) 1,00 h 0,00 h 14,7 km/h (3 Bft)
28.05.2012 15:00 26,9 C 26,4 C 2,7 UV-I 4,6 C 50 % 47 % 99 % 1012,9 hPa 0,0 l/m 8,6 km/h (2 Bft) 1,00 h 0,00 h 16,6 km/h (3 Bft)
28.05.2012 16:00 27,3 C 27,3 C 3,4 UV-I 5,0 C 48 % 43 % 100 % 1012,4 hPa 0,0 l/m 7,5 km/h (2 Bft) 1,00 h 0,00 h 13,5 km/h (3 Bft)
28.05.2012 17:00 27,5 C 26,9 C 3,2 UV-I 4,4 C 47 % 42 % 100 % 1012,4 hPa 0,0 l/m 9,6 km/h (2 Bft) 1,00 h 0,00 h 16,9 km/h (3 Bft)
28.05.2012 18:00 27,1 C 26,0 C 1,0 UV-I 2,0 C 46 % 39 % 54 % 1013,3 hPa 0,0 l/m 8,8 km/h (2 Bft) 0,33 h 0,00 h 18,0 km/h (3 Bft)
28.05.2012 19:00 26,2 C 25,2 C 0,5 UV-I 0,0 C 47 % 46 % 0 % 1013,6 hPa 0,0 l/m 7,8 km/h (2 Bft) 0,00 h 0,00 h 13,5 km/h (3 Bft)
28.05.2012 20:00 25,7 C 24,0 C 0,1 UV-I 0,0 C 49 % 50 % 0 % 1013,7 hPa 0,0 l/m 4,6 km/h (1 Bft) 0,00 h 0,00 h 8,4 km/h (2 Bft)
28.05.2012 21:00 25,3 C 22,1 C 0,0 UV-I 0,0 C 50 % 55 % 0 % 1013,7 hPa 0,0 l/m 0,5 km/h (0 Bft) 0,00 h 0,00 h 2,1 km/h (1 Bft)
28.05.2012 22:00 25,1 C 20,2 C 0,0 UV-I 0,0 C 50 % 60 % 0 % 1014,5 hPa 0,0 l/m 0,5 km/h (0 Bft) 0,00 h 0,00 h 1,7 km/h (1 Bft)
28.05.2012 23:00 24,8 C 18,7 C 0,0 UV-I 0,0 C 51 % 65 % 0 % 1014,9 hPa 0,0 l/m 0,5 km/h (0 Bft) 0,00 h 0,00 h 2,4 km/h (1 Bft)
29.05.2012 00:00 24,6 C 17,1 C 0,0 UV-I 0,0 C 51 % 67 % 0 % 1015,1 hPa 0,0 l/m 0,0 km/h (0 Bft) 0,00 h 0,00 h 0,5 km/h (0 Bft)
29.05.2012 01:00 24,4 C 15,5 C 0,0 UV-I 0,0 C 51 % 71 % 0 % 1015,2 hPa 0,0 l/m 0,0 km/h (0 Bft) 0,00 h 0,00 h 0,0 km/h (0 Bft)
29.05.2012 02:00 24,1 C 14,6 C 0,0 UV-I 0,0 C 51 % 76 % 0 % 1015,2 hPa 0,0 l/m 0,1 km/h (0 Bft) 0,00 h 0,00 h 0,3 km/h (0 Bft)
29.05.2012 03:00 23,9 C 14,0 C 0,0 UV-I 0,0 C 51 % 78 % 0 % 1015,1 hPa 0,0 l/m 0,0 km/h (0 Bft) 0,00 h 0,00 h 0,0 km/h (0 Bft)
29.05.2012 04:00 23,6 C 13,0 C 0,0 UV-I 0,0 C 51 % 81 % 0 % 1015,1 hPa 0,0 l/m 0,0 km/h (0 Bft) 0,00 h 0,00 h 0,0 km/h (0 Bft)
29.05.2012 05:00 23,3 C 12,2 C 0,0 UV-I 0,0 C 52 % 83 % 0 % 1015,3 hPa 0,0 l/m 0,0 km/h (0 Bft) 0,00 h 0,00 h 0,0 km/h (0 Bft)
29.05.2012 06:00 23,1 C 12,0 C 0,0 UV-I 0,0 C 52 % 85 % 0 % 1015,3 hPa 0,0 l/m 0,0 km/h (0 Bft) 0,00 h 0,00 h 0,0 km/h (0 Bft)
29.05.2012 07:00 23,1 C 13,1 C 0,1 UV-I 0,1 C 52 % 88 % 1 % 1015,5 hPa 0,0 l/m 1,7 km/h (1 Bft) 0,00 h 0,00 h 5,7 km/h (1 Bft)
29.05.2012 08:00 23,1 C 14,8 C 1,0 UV-I 5,3 C 52 % 84 % 82 % 1015,6 hPa 0,0 l/m 3,3 km/h (1 Bft) 0,77 h 0,00 h 7,9 km/h (2 Bft)
29.05.2012 09:00 23,1 C 16,9 C 2,8 UV-I 8,3 C 52 % 77 % 100 % 1015,8 hPa 0,0 l/m 3,9 km/h (1 Bft) 1,00 h 0,00 h 9,5 km/h (2 Bft)
29.05.2012 10:00 23,3 C 18,3 C 4,3 UV-I 8,3 C 52 % 72 % 100 % 1015,6 hPa 0,0 l/m 4,9 km/h (1 Bft) 1,00 h 0,00 h 10,4 km/h (2 Bft)
29.05.2012 11:00 23,5 C 19,8 C 3,7 UV-I 8,0 C 52 % 67 % 100 % 1015,6 hPa 0,0 l/m 4,3 km/h (1 Bft) 1,00 h 0,00 h 8,5 km/h (2 Bft)
29.05.2012 12:00 24,0 C 21,8 C 2,8 UV-I 6,5 C 51 % 58 % 100 % 1015,2 hPa 0,0 l/m 6,0 km/h (2 Bft) 1,00 h 0,00 h 10,3 km/h (2 Bft)
29.05.2012 13:00 24,6 C 22,6 C 2,7 UV-I 5,5 C 50 % 55 % 99 % 1015,0 hPa 0,0 l/m 8,4 km/h (2 Bft) 1,00 h 0,00 h 16,0 km/h (3 Bft)
29.05.2012 14:00 25,0 C 22,0 C 1,6 UV-I 3,1 C 49 % 56 % 83 % 1014,9 hPa 0,0 l/m 6,0 km/h (2 Bft) 0,53 h 0,00 h 10,5 km/h (2 Bft)
29.05.2012 15:00 25,6 C 22,8 C 2,3 UV-I 4,8 C 48 % 57 % 100 % 1014,1 hPa 0,0 l/m 6,6 km/h (2 Bft) 1,00 h 0,00 h 13,4 km/h (3 Bft)
29.05.2012 16:00 26,8 C 23,6 C 2,7 UV-I 4,6 C 46 % 56 % 100 % 1013,5 hPa 0,0 l/m 7,9 km/h (2 Bft) 1,00 h 0,00 h 12,5 km/h (3 Bft)
29.05.2012 17:00 27,2 C 23,3 C 2,0 UV-I 3,7 C 45 % 57 % 91 % 1013,3 hPa 0,0 l/m 9,0 km/h (2 Bft) 0,73 h 0,00 h 15,3 km/h (3 Bft)
29.05.2012 18:00 26,6 C 22,3 C 1,0 UV-I 1,7 C 46 % 61 % 48 % 1014,1 hPa 0,0 l/m 9,5 km/h (2 Bft) 0,00 h 0,00 h 13,9 km/h (3 Bft)
29.05.2012 19:00 25,9 C 21,7 C 0,4 UV-I 0,4 C 47 % 63 % 13 % 1014,1 hPa 0,0 l/m 5,2 km/h (1 Bft) 0,00 h 0,00 h 9,7 km/h (2 Bft)
29.05.2012 20:00 25,4 C 20,8 C 0,0 UV-I 0,0 C 48 % 65 % 0 % 1014,6 hPa 0,0 l/m 2,6 km/h (1 Bft) 0,00 h 0,00 h 6,1 km/h (2 Bft)
29.05.2012 21:00 25,0 C 19,5 C 0,0 UV-I 0,0 C 50 % 70 % 0 % 1015,1 hPa 0,0 l/m 0,6 km/h (0 Bft) 0,00 h 0,00 h 0,6 km/h (0 Bft)
29.05.2012 22:00 24,6 C 18,0 C 0,0 UV-I 0,0 C 51 % 75 % 0 % 1015,7 hPa 0,0 l/m 0,3 km/h (0 Bft) 0,00 h 0,00 h 1,7 km/h (1 Bft)
29.05.2012 23:00 24,3 C 16,8 C 0,0 UV-I 0,0 C 52 % 76 % 0 % 1016,2 hPa 0,0 l/m 4,9 km/h (1 Bft) 0,00 h 0,00 h 9,3 km/h (2 Bft)
30.05.2012 00:00 24,1 C 16,1 C 0,0 UV-I 0,0 C 52 % 73 % 0 % 1016,1 hPa 0,0 l/m 5,6 km/h (1 Bft) 0,00 h 0,00 h 10,4 km/h (2 Bft)
30.05.2012 01:00 23,8 C 15,6 C 0,0 UV-I 0,0 C 51 % 70 % 0 % 1016,3 hPa 0,0 l/m 5,2 km/h (1 Bft) 0,00 h 0,00 h 8,9 km/h (2 Bft)
30.05.2012 02:00 23,6 C 15,2 C 0,0 UV-I 0,0 C 51 % 71 % 0 % 1016,1 hPa 0,0 l/m 3,5 km/h (1 Bft) 0,00 h 0,00 h 6,3 km/h (2 Bft)
30.05.2012 03:00 23,5 C 14,7 C 0,0 UV-I 0,0 C 51 % 74 % 0 % 1016,4 hPa 0,0 l/m 4,1 km/h (1 Bft) 0,00 h 0,00 h 7,8 km/h (2 Bft)
30.05.2012 04:00 23,3 C 14,1 C 0,0 UV-I 0,0 C 51 % 76 % 0 % 1016,6 hPa 0,0 l/m 2,7 km/h (1 Bft) 0,00 h 0,00 h 4,4 km/h (1 Bft)
30.05.2012 05:00 23,2 C 13,3 C 0,0 UV-I 0,0 C 52 % 79 % 0 % 1016,9 hPa 0,0 l/m 2,0 km/h (1 Bft) 0,00 h 0,00 h 3,5 km/h (1 Bft)
30.05.2012 06:00 23,0 C 13,2 C 0,0 UV-I 0,0 C 52 % 80 % 1 % 1017,0 hPa 0,0 l/m 0,8 km/h (0 Bft) 0,00 h 0,00 h 1,7 km/h (1 Bft)
30.05.2012 07:00 23,0 C 13,5 C 0,0 UV-I 0,9 C 52 % 80 % 27 % 1017,3 hPa 0,0 l/m 1,9 km/h (1 Bft) 0,00 h 0,00 h 4,0 km/h (1 Bft)
30.05.2012 08:00 23,0 C 14,4 C 0,9 UV-I 5,4 C 52 % 78 % 89 % 1017,7 hPa 0,0 l/m 3,5 km/h (1 Bft) 0,80 h 0,00 h 6,7 km/h (2 Bft)
30.05.2012 09:00 23,1 C 16,0 C 2,6 UV-I 7,9 C 51 % 73 % 100 % 1017,9 hPa 0,0 l/m 4,1 km/h (1 Bft) 1,00 h 0,00 h 8,0 km/h (2 Bft)
30.05.2012 10:00 23,2 C 17,7 C 3,5 UV-I 8,2 C 51 % 65 % 100 % 1018,1 hPa 0,0 l/m 2,3 km/h (1 Bft) 1,00 h 0,00 h 5,4 km/h (1 Bft)
30.05.2012 11:00 23,4 C 19,3 C 3,7 UV-I 8,5 C 51 % 61 % 100 % 1018,0 hPa 0,0 l/m 3,8 km/h (1 Bft) 1,00 h 0,00 h 9,1 km/h (2 Bft)
30.05.2012 12:00 23,8 C 20,6 C 2,6 UV-I 7,4 C 50 % 58 % 100 % 1018,1 hPa 0,0 l/m 5,0 km/h (1 Bft) 1,00 h 0,00 h 9,2 km/h (2 Bft)
30.05.2012 13:00 24,4 C 21,8 C 2,6 UV-I 6,4 C 49 % 55 % 100 % 1017,9 hPa 0,0 l/m 5,9 km/h (2 Bft) 1,00 h 0,00 h 11,3 km/h (2 Bft)
30.05.2012 14:00 25,6 C 22,6 C 2,5 UV-I 5,5 C 47 % 52 % 100 % 1015,8 hPa 0,0 l/m 4,6 km/h (1 Bft) 1,00 h 0,00 h 9,5 km/h (2 Bft)
30.05.2012 15:00 26,6 C 22,7 C 2,1 UV-I 4,3 C 44 % 51 % 100 % 1016,3 hPa 0,0 l/m 4,8 km/h (1 Bft) 1,00 h 0,00 h 9,0 km/h (2 Bft)
30.05.2012 16:00 26,8 C 22,7 C 2,2 UV-I 3,6 C 43 % 51 % 93 % 1016,2 hPa 0,0 l/m 6,7 km/h (2 Bft) 0,80 h 0,00 h 10,9 km/h (2 Bft)
30.05.2012 17:00 27,1 C 23,3 C 2,5 UV-I 4,1 C 43 % 49 % 94 % 1015,9 hPa 0,0 l/m 6,1 km/h (2 Bft) 0,87 h 0,00 h 12,6 km/h (3 Bft)
30.05.2012 18:00 26,8 C 23,0 C 1,0 UV-I 2,3 C 43 % 50 % 64 % 1017,0 hPa 0,0 l/m 5,9 km/h (2 Bft) 0,40 h 0,00 h 11,4 km/h (2 Bft)
30.05.2012 19:00 26,0 C 22,4 C 0,4 UV-I 0,1 C 44 % 52 % 2 % 1017,0 hPa 0,0 l/m 4,4 km/h (1 Bft) 0,00 h 0,00 h 7,6 km/h (2 Bft)
30.05.2012 20:00 25,4 C 21,8 C 0,0 UV-I 0,0 C 46 % 55 % 0 % 1017,2 hPa 0,0 l/m 0,9 km/h (0 Bft) 0,00 h 0,00 h 2,6 km/h (1 Bft)
30.05.2012 21:00 25,0 C 20,6 C 0,0 UV-I 0,0 C 47 % 59 % 0 % 1017,6 hPa 0,0 l/m 0,1 km/h (0 Bft) 0,00 h 0,00 h 0,3 km/h (0 Bft)
30.05.2012 22:00 24,7 C 18,7 C 0,0 UV-I 0,0 C 48 % 67 % 0 % 1017,9 hPa 0,0 l/m 0,0 km/h (0 Bft) 0,00 h 0,00 h 0,0 km/h (0 Bft)
30.05.2012 23:00 24,4 C 16,9 C 0,0 UV-I 0,0 C 50 % 74 % 0 % 1018,0 hPa 0,0 l/m 0,0 km/h (0 Bft) 0,00 h 0,00 h 0,0 km/h (0 Bft)
31.05.2012 00:00 24,2 C 15,6 C 0,0 UV-I 0,0 C 50 % 79 % 0 % 1018,1 hPa 0,0 l/m 0,0 km/h (0 Bft) 0,00 h 0,00 h 0,0 km/h (0 Bft)
31.05.2012 01:00 24,0 C 15,3 C 0,0 UV-I 0,0 C 51 % 81 % 0 % 1018,3 hPa 0,0 l/m 0,0 km/h (0 Bft) 0,00 h 0,00 h 0,0 km/h (0 Bft)
31.05.2012 02:00 23,8 C 15,0 C 0,0 UV-I 0,0 C 51 % 82 % 0 % 1018,0 hPa 0,0 l/m 0,0 km/h (0 Bft) 0,00 h 0,00 h 0,0 km/h (0 Bft)
31.05.2012 03:00 23,6 C 15,3 C 0,0 UV-I 0,0 C 52 % 82 % 0 % 1017,9 hPa 0,0 l/m 0,0 km/h (0 Bft) 0,00 h 0,00 h 0,3 km/h (0 Bft)
31.05.2012 04:00 23,4 C 14,5 C 0,0 UV-I 0,0 C 53 % 84 % 0 % 1018,2 hPa 0,0 l/m 0,0 km/h (0 Bft) 0,00 h 0,00 h 0,0 km/h (0 Bft)
31.05.2012 05:00 23,2 C 14,5 C 0,0 UV-I 0,0 C 53 % 86 % 0 % 1017,9 hPa 0,0 l/m 0,0 km/h (0 Bft) 0,00 h 0,00 h 0,0 km/h (0 Bft)
31.05.2012 06:00 23,2 C 14,4 C 0,0 UV-I 0,0 C 53 % 87 % 0 % 1018,0 hPa 0,0 l/m 0,0 km/h (0 Bft) 0,00 h 0,00 h 0,1 km/h (0 Bft)
31.05.2012 07:00 23,2 C 15,6 C 0,1 UV-I 1,0 C 54 % 87 % 28 % 1018,2 hPa 0,0 l/m 0,8 km/h (0 Bft) 0,00 h 0,00 h 3,8 km/h (1 Bft)
31.05.2012 08:00 23,4 C 17,5 C 0,5 UV-I 3,1 C 53 % 83 % 81 % 1017,6 hPa 0,0 l/m 1,5 km/h (1 Bft) 0,57 h 0,00 h 3,5 km/h (1 Bft)
31.05.2012 09:00 23,8 C 18,9 C 1,2 UV-I 3,6 C 53 % 77 % 99 % 1017,4 hPa 0,0 l/m 2,6 km/h (1 Bft) 0,87 h 0,00 h 6,4 km/h (2 Bft)
31.05.2012 10:00 24,1 C 19,8 C 1,2 UV-I 3,1 C 52 % 72 % 85 % 1017,2 hPa 0,0 l/m 2,7 km/h (1 Bft) 0,57 h 0,00 h 6,5 km/h (2 Bft)
31.05.2012 11:00 24,3 C 20,6 C 1,7 UV-I 3,4 C 52 % 68 % 94 % 1016,6 hPa 0,0 l/m 4,8 km/h (1 Bft) 1,00 h 0,00 h 9,5 km/h (2 Bft)
31.05.2012 12:00 24,5 C 21,4 C 1,5 UV-I 3,2 C 51 % 67 % 90 % 1016,2 hPa 0,0 l/m 3,4 km/h (1 Bft) 0,87 h 0,00 h 7,3 km/h (2 Bft)
31.05.2012 13:00 24,6 C 21,3 C 1,2 UV-I 2,2 C 51 % 66 % 62 % 1015,8 hPa 0,0 l/m 4,4 km/h (1 Bft) 0,23 h 0,07 h 8,4 km/h (2 Bft)
31.05.2012 14:00 24,3 C 20,1 C 0,7 UV-I 0,9 C 54 % 76 % 27 % 1015,0 hPa 1,6 l/m 1,5 km/h (1 Bft) 0,03 h 0,27 h 3,2 km/h (1 Bft)
31.05.2012 15:00 24,3 C 18,8 C 0,2 UV-I 0,2 C 54 % 82 % 7 % 1014,6 hPa 1,0 l/m 2,8 km/h (1 Bft) 0,00 h 0,57 h 6,3 km/h (2 Bft)
31.05.2012 16:00 24,4 C 18,9 C 1,4 UV-I 2,0 C 55 % 85 % 56 % 1013,9 hPa 0,0 l/m 4,7 km/h (1 Bft) 0,33 h 0,00 h 10,2 km/h (2 Bft)
31.05.2012 17:00 24,9 C 20,0 C 1,0 UV-I 2,0 C 53 % 74 % 58 % 1013,1 hPa 0,0 l/m 6,4 km/h (2 Bft) 0,27 h 0,00 h 11,7 km/h (2 Bft)
31.05.2012 18:00 24,6 C 19,1 C 0,4 UV-I 0,2 C 53 % 74 % 6 % 1013,4 hPa 0,1 l/m 5,7 km/h (1 Bft) 0,00 h 0,07 h 13,6 km/h (3 Bft)
31.05.2012 19:00 24,3 C 18,4 C 0,0 UV-I 0,1 C 53 % 75 % 2 % 1013,6 hPa 0,0 l/m 5,3 km/h (1 Bft) 0,00 h 0,00 h 13,4 km/h (3 Bft)
31.05.2012 20:00 24,0 C 17,9 C 0,0 UV-I 0,0 C 53 % 75 % 0 % 1013,5 hPa 0,0 l/m 4,3 km/h (1 Bft) 0,00 h 0,37 h 11,0 km/h (2 Bft)
31.05.2012 21:00 23,7 C 16,4 C 0,0 UV-I 0,0 C 54 % 82 % 0 % 1013,9 hPa 0,6 l/m 5,6 km/h (1 Bft) 0,00 h 0,80 h 12,2 km/h (3 Bft)
31.05.2012 22:00 23,3 C 14,8 C 0,0 UV-I 0,0 C 55 % 89 % 0 % 1014,7 hPa 2,1 l/m 4,2 km/h (1 Bft) 0,00 h 0,57 h 9,6 km/h (2 Bft)
31.05.2012 23:00 23,0 C 14,0 C 0,0 UV-I 0,0 C 56 % 92 % 0 % 1015,0 hPa 0,0 l/m 2,4 km/h (1 Bft) 0,00 h 0,00 h 6,5 km/h (2 Bft)
01.06.2012 00:00 22,8 C 13,8 C 0,0 UV-I 0,0 C 57 % 93 % 0 % 1015,3 hPa 0,0 l/m 2,9 km/h (1 Bft) 0,00 h 0,00 h 7,7 km/h (2 Bft)
01.06.2012 01:00 22,6 C 13,4 C 0,0 UV-I 0,0 C 57 % 93 % 0 % 1015,5 hPa 0,0 l/m 2,4 km/h (1 Bft) 0,00 h 0,00 h 5,7 km/h (1 Bft)
01.06.2012 02:00 22,4 C 13,0 C 0,0 UV-I 0,0 C 57 % 93 % 0 % 1015,7 hPa 0,0 l/m 2,5 km/h (1 Bft) 0,00 h 0,00 h 7,0 km/h (2 Bft)
01.06.2012 03:00 22,2 C 12,9 C 0,0 UV-I 0,0 C 57 % 94 % 0 % 1015,5 hPa 0,0 l/m 1,8 km/h (1 Bft) 0,00 h 0,00 h 6,1 km/h (2 Bft)
01.06.2012 04:00 22,2 C 12,9 C 0,0 UV-I 0,0 C 57 % 94 % 0 % 1015,8 hPa 0,0 l/m 2,9 km/h (1 Bft) 0,00 h 0,00 h 8,0 km/h (2 Bft)
01.06.2012 05:00 22,1 C 12,9 C 0,0 UV-I 0,0 C 56 % 92 % 0 % 1015,9 hPa 0,0 l/m 3,6 km/h (1 Bft) 0,00 h 0,00 h 7,5 km/h (2 Bft)
01.06.2012 06:00 22,0 C 12,9 C 0,0 UV-I 0,0 C 56 % 89 % 0 % 1016,2 hPa 0,0 l/m 2,7 km/h (1 Bft) 0,00 h 0,00 h 5,6 km/h (1 Bft)
01.06.2012 07:00 22,0 C 13,0 C 0,2 UV-I 0,2 C 56 % 90 % 5 % 1016,8 hPa 0,0 l/m 3,5 km/h (1 Bft) 0,00 h 0,00 h 7,2 km/h (2 Bft)
01.06.2012 08:00 22,0 C 13,8 C 0,3 UV-I 1,7 C 56 % 88 % 47 % 1017,2 hPa 0,0 l/m 3,2 km/h (1 Bft) 0,00 h 0,00 h 6,9 km/h (2 Bft)
01.06.2012 09:00 22,2 C 14,3 C 0,3 UV-I 1,6 C 55 % 87 % 47 % 1017,5 hPa 0,0 l/m 3,5 km/h (1 Bft) 0,03 h 0,00 h 7,9 km/h (2 Bft)
01.06.2012 10:00 22,3 C 15,3 C 0,2 UV-I 3,6 C 55 % 83 % 89 % 1017,8 hPa 0,0 l/m 4,2 km/h (1 Bft) 0,63 h 0,00 h 6,7 km/h (2 Bft)
01.06.2012 11:00 22,4 C 15,5 C 0,1 UV-I 1,2 C 54 % 80 % 34 % 1018,0 hPa 0,0 l/m 3,3 km/h (1 Bft) 0,00 h 0,00 h 8,5 km/h (2 Bft)
01.06.2012 12:00 22,3 C 15,4 C 0,2 UV-I 1,1 C 54 % 80 % 32 % 1018,1 hPa 0,0 l/m 4,8 km/h (1 Bft) 0,00 h 0,00 h 8,6 km/h (2 Bft)
01.06.2012 13:00 22,3 C 14,6 C 0,5 UV-I 0,7 C 56 % 83 % 20 % 1018,4 hPa 0,0 l/m 8,9 km/h (2 Bft) 0,00 h 0,13 h 16,1 km/h (3 Bft)
01.06.2012 14:00 22,4 C 14,3 C 1,0 UV-I 2,0 C 56 % 88 % 53 % 1018,6 hPa 0,1 l/m 3,9 km/h (1 Bft) 0,40 h 0,27 h 6,6 km/h (2 Bft)
01.06.2012 15:00 22,7 C 15,5 C 0,8 UV-I 2,7 C 55 % 85 % 76 % 1018,2 hPa 0,0 l/m 3,7 km/h (1 Bft) 0,57 h 0,00 h 9,8 km/h (2 Bft)
01.06.2012 16:00 23,3 C 16,1 C 1,2 UV-I 3,0 C 54 % 80 % 79 % 1017,6 hPa 0,0 l/m 7,9 km/h (2 Bft) 0,53 h 0,00 h 11,9 km/h (2 Bft)
01.06.2012 17:00 23,9 C 16,6 C 1,9 UV-I 3,2 C 52 % 76 % 86 % 1017,4 hPa 0,0 l/m 8,2 km/h (2 Bft) 0,63 h 0,00 h 13,0 km/h (3 Bft)
01.06.2012 18:00 24,3 C 16,6 C 1,0 UV-I 2,7 C 51 % 73 % 73 % 1017,3 hPa 0,0 l/m 6,7 km/h (2 Bft) 0,50 h 0,00 h 10,4 km/h (2 Bft)
01.06.2012 19:00 24,0 C 15,9 C 0,3 UV-I 0,8 C 50 % 74 % 24 % 1017,5 hPa 0,0 l/m 6,2 km/h (2 Bft) 0,00 h 0,00 h 10,9 km/h (2 Bft)
01.06.2012 20:00 23,2 C 15,1 C 0,0 UV-I 0,0 C 52 % 77 % 1 % 1017,8 hPa 0,0 l/m 4,8 km/h (1 Bft) 0,00 h 0,00 h 6,8 km/h (2 Bft)
01.06.2012 21:00 22,6 C 14,5 C 0,0 UV-I 0,0 C 53 % 78 % 0 % 1017,8 hPa 0,0 l/m 1,4 km/h (1 Bft) 0,00 h 0,00 h 2,9 km/h (1 Bft)
01.06.2012 22:00 22,2 C 13,9 C 0,0 UV-I 0,0 C 54 % 80 % 0 % 1017,9 hPa 0,0 l/m 1,7 km/h (1 Bft) 0,00 h 0,00 h 3,5 km/h (1 Bft)
01.06.2012 23:00 21,9 C 12,5 C 0,0 UV-I 0,0 C 54 % 83 % 0 % 1017,9 hPa 0,0 l/m 0,0 km/h (0 Bft) 0,00 h 0,00 h 0,0 km/h (0 Bft)
02.06.2012 00:00 21,6 C 11,5 C 0,0 UV-I 0,0 C 55 % 86 % 0 % 1017,9 hPa 0,0 l/m 0,0 km/h (0 Bft) 0,00 h 0,00 h 0,3 km/h (0 Bft)
02.06.2012 01:00 21,4 C 11,4 C 0,0 UV-I 0,0 C 55 % 87 % 0 % 1018,0 hPa 0,0 l/m 1,8 km/h (1 Bft) 0,00 h 0,00 h 4,9 km/h (1 Bft)
02.06.2012 02:00 21,2 C 10,8 C 0,0 UV-I 0,0 C 54 % 85 % 0 % 1017,7 hPa 0,0 l/m 0,0 km/h (0 Bft) 0,00 h 0,00 h 0,0 km/h (0 Bft)
02.06.2012 03:00 21,1 C 9,7 C 0,0 UV-I 0,0 C 54 % 88 % 0 % 1017,7 hPa 0,0 l/m 0,0 km/h (0 Bft) 0,00 h 0,00 h 0,0 km/h (0 Bft)
02.06.2012 04:00 20,9 C 8,9 C 0,0 UV-I 0,0 C 54 % 90 % 0 % 1017,5 hPa 0,0 l/m 0,0 km/h (0 Bft) 0,00 h 0,00 h 0,0 km/h (0 Bft)
02.06.2012 05:00 20,8 C 8,0 C 0,0 UV-I 0,0 C 53 % 91 % 0 % 1017,5 hPa 0,0 l/m 0,0 km/h (0 Bft) 0,00 h 0,00 h 0,0 km/h (0 Bft)
02.06.2012 06:00 20,6 C 7,7 C 0,0 UV-I 0,0 C 53 % 92 % 0 % 1017,5 hPa 0,0 l/m 0,1 km/h (0 Bft) 0,00 h 0,00 h 0,4 km/h (0 Bft)
02.06.2012 07:00 20,6 C 8,9 C 0,1 UV-I 0,0 C 53 % 93 % 0 % 1017,6 hPa 0,0 l/m 1,6 km/h (1 Bft) 0,00 h 0,03 h 4,2 km/h (1 Bft)
02.06.2012 08:00 20,7 C 10,9 C 0,9 UV-I 6,8 C 53 % 87 % 85 % 1017,5 hPa 0,0 l/m 3,1 km/h (1 Bft) 0,83 h 0,00 h 6,5 km/h (2 Bft)
02.06.2012 09:00 20,8 C 12,7 C 3,4 UV-I 8,9 C 53 % 76 % 100 % 1017,5 hPa 0,0 l/m 4,5 km/h (1 Bft) 1,00 h 0,00 h 9,3 km/h (2 Bft)
02.06.2012 10:00 21,0 C 14,0 C 4,1 UV-I 8,8 C 52 % 69 % 100 % 1017,4 hPa 0,0 l/m 4,4 km/h (1 Bft) 1,00 h 0,00 h 9,2 km/h (2 Bft)
02.06.2012 11:00 21,2 C 14,8 C 3,3 UV-I 7,4 C 51 % 63 % 100 % 1017,2 hPa 0,0 l/m 6,2 km/h (2 Bft) 1,00 h 0,00 h 11,5 km/h (2 Bft)
02.06.2012 12:00 21,6 C 15,6 C 2,5 UV-I 6,7 C 50 % 61 % 100 % 1017,1 hPa 0,0 l/m 6,1 km/h (2 Bft) 1,00 h 0,00 h 11,5 km/h (2 Bft)
02.06.2012 13:00 22,3 C 16,6 C 2,7 UV-I 5,9 C 49 % 56 % 100 % 1016,4 hPa 0,0 l/m 7,0 km/h (2 Bft) 1,00 h 0,00 h 13,8 km/h (3 Bft)
02.06.2012 14:00 23,4 C 17,3 C 2,7 UV-I 5,8 C 46 % 53 % 100 % 1015,9 hPa 0,0 l/m 6,7 km/h (2 Bft) 1,00 h 0,00 h 12,0 km/h (2 Bft)
02.06.2012 15:00 24,9 C 18,1 C 2,8 UV-I 6,2 C 43 % 51 % 100 % 1015,1 hPa 0,0 l/m 6,1 km/h (2 Bft) 1,00 h 0,00 h 10,7 km/h (2 Bft)
02.06.2012 16:00 26,2 C 18,3 C 3,5 UV-I 5,7 C 40 % 48 % 100 % 1013,8 hPa 0,0 l/m 6,1 km/h (2 Bft) 1,00 h 0,00 h 12,6 km/h (3 Bft)
02.06.2012 17:00 26,7 C 18,5 C 3,7 UV-I 5,5 C 38 % 47 % 100 % 1013,3 hPa 0,0 l/m 5,9 km/h (2 Bft) 1,00 h 0,00 h 10,8 km/h (2 Bft)
02.06.2012 18:00 26,0 C 17,8 C 1,3 UV-I 2,8 C 39 % 49 % 66 % 1013,6 hPa 0,0 l/m 7,0 km/h (2 Bft) 0,43 h 0,00 h 12,2 km/h (2 Bft)
02.06.2012 19:00 24,9 C 17,1 C 0,5 UV-I 0,3 C 41 % 52 % 9 % 1013,8 hPa 0,0 l/m 7,1 km/h (2 Bft) 0,00 h 0,00 h 11,8 km/h (2 Bft)
02.06.2012 20:00 24,0 C 16,3 C 0,1 UV-I 0,0 C 42 % 54 % 0 % 1013,8 hPa 0,0 l/m 8,2 km/h (2 Bft) 0,00 h 0,00 h 12,5 km/h (3 Bft)
02.06.2012 21:00 23,3 C 15,0 C 0,0 UV-I 0,0 C 43 % 59 % 0 % 1013,7 hPa 0,0 l/m 6,1 km/h (2 Bft) 0,00 h 0,00 h 8,1 km/h (2 Bft)
02.06.2012 22:00 22,7 C 13,9 C 0,0 UV-I 0,0 C 45 % 62 % 0 % 1013,8 hPa 0,0 l/m 4,1 km/h (1 Bft) 0,00 h 0,00 h 6,4 km/h (2 Bft)
02.06.2012 23:00 22,3 C 13,1 C 0,0 UV-I 0,0 C 46 % 62 % 0 % 1013,8 hPa 0,0 l/m 4,3 km/h (1 Bft) 0,00 h 0,00 h 6,8 km/h (2 Bft)
03.06.2012 00:00 22,0 C 12,5 C 0,0 UV-I 0,0 C 46 % 64 % 0 % 1013,2 hPa 0,0 l/m 2,3 km/h (1 Bft) 0,00 h 0,00 h 4,1 km/h (1 Bft)
03.06.2012 01:00 21,8 C 12,5 C 0,0 UV-I 0,0 C 46 % 65 % 0 % 1012,6 hPa 0,0 l/m 0,9 km/h (0 Bft) 0,00 h 0,00 h 1,8 km/h (1 Bft)
03.06.2012 02:00 21,6 C 12,5 C 0,0 UV-I 0,0 C 46 % 64 % 0 % 1011,9 hPa 0,0 l/m 1,5 km/h (1 Bft) 0,00 h 0,00 h 3,5 km/h (1 Bft)
03.06.2012 03:00 21,5 C 12,1 C 0,0 UV-I 0,0 C 46 % 65 % 0 % 1011,2 hPa 0,0 l/m 2,8 km/h (1 Bft) 0,00 h 0,20 h 6,3 km/h (2 Bft)
03.06.2012 04:00 21,3 C 11,0 C 0,0 UV-I 0,0 C 47 % 75 % 0 % 1010,7 hPa 0,2 l/m 1,3 km/h (1 Bft) 0,00 h 0,97 h 4,3 km/h (1 Bft)
03.06.2012 05:00 21,2 C 10,0 C 0,0 UV-I 0,0 C 48 % 84 % 0 % 1010,1 hPa 0,6 l/m 1,7 km/h (1 Bft) 0,00 h 0,90 h 3,5 km/h (1 Bft)
03.06.2012 06:00 21,0 C 9,6 C 0,0 UV-I 0,0 C 49 % 89 % 0 % 1009,1 hPa 0,1 l/m 1,9 km/h (1 Bft) 0,00 h 0,17 h 5,1 km/h (1 Bft)
03.06.2012 07:00 20,9 C 9,6 C 0,0 UV-I 0,0 C 49 % 91 % 0 % 1008,5 hPa 0,2 l/m 2,3 km/h (1 Bft) 0,00 h 0,80 h 5,6 km/h (1 Bft)
03.06.2012 08:00 20,8 C 9,6 C 0,0 UV-I 0,0 C 50 % 92 % 0 % 1007,6 hPa 1,0 l/m 2,4 km/h (1 Bft) 0,00 h 0,80 h 5,3 km/h (1 Bft)
03.06.2012 09:00 20,8 C 9,8 C 0,0 UV-I 0,0 C 51 % 93 % 0 % 1006,8 hPa 2,1 l/m 2,4 km/h (1 Bft) 0,00 h 0,77 h 5,7 km/h (1 Bft)
03.06.2012 10:00 20,7 C 9,6 C 0,0 UV-I 0,0 C 52 % 94 % 0 % 1005,7 hPa 6,6 l/m 2,3 km/h (1 Bft) 0,00 h 0,30 h 6,3 km/h (2 Bft)
03.06.2012 11:00 20,7 C 10,0 C 0,2 UV-I 0,4 C 52 % 95 % 12 % 1005,3 hPa 0,9 l/m 3,0 km/h (1 Bft) 0,00 h 0,20 h 5,8 km/h (2 Bft)
03.06.2012 12:00 20,8 C 10,4 C 0,1 UV-I 0,3 C 52 % 96 % 7 % 1004,9 hPa 1,0 l/m 2,1 km/h (1 Bft) 0,00 h 0,97 h 5,2 km/h (1 Bft)
03.06.2012 13:00 20,9 C 10,6 C 0,2 UV-I 0,4 C 53 % 96 % 10 % 1004,7 hPa 1,0 l/m 3,7 km/h (1 Bft) 0,00 h 0,93 h 6,9 km/h (2 Bft)
03.06.2012 14:00 20,8 C 10,7 C 0,0 UV-I 0,1 C 53 % 96 % 2 % 1005,3 hPa 0,6 l/m 4,4 km/h (1 Bft) 0,00 h 0,83 h 8,0 km/h (2 Bft)
03.06.2012 15:00 20,8 C 10,9 C 0,2 UV-I 0,2 C 54 % 96 % 6 % 1005,8 hPa 0,4 l/m 4,3 km/h (1 Bft) 0,00 h 0,43 h 7,8 km/h (2 Bft)
03.06.2012 16:00 20,8 C 10,7 C 0,0 UV-I 0,0 C 54 % 95 % 1 % 1006,4 hPa 0,0 l/m 6,1 km/h (2 Bft) 0,00 h 0,00 h 9,9 km/h (2 Bft)
03.06.2012 17:00 20,6 C 10,3 C 0,0 UV-I 0,0 C 54 % 96 % 0 % 1007,2 hPa 0,1 l/m 6,3 km/h (2 Bft) 0,00 h 0,30 h 9,6 km/h (2 Bft)
03.06.2012 18:00 20,6 C 10,0 C 0,0 UV-I 0,0 C 54 % 96 % 0 % 1008,1 hPa 0,1 l/m 5,6 km/h (1 Bft) 0,00 h 0,37 h 10,1 km/h (2 Bft)
03.06.2012 19:00 20,4 C 9,5 C 0,0 UV-I 0,0 C 54 % 96 % 0 % 1008,9 hPa 0,0 l/m 5,7 km/h (1 Bft) 0,00 h 0,07 h 10,3 km/h (2 Bft)
03.06.2012 20:00 20,3 C 9,3 C 0,0 UV-I 0,0 C 54 % 96 % 0 % 1009,6 hPa 0,2 l/m 2,8 km/h (1 Bft) 0,00 h 0,27 h 5,9 km/h (2 Bft)
03.06.2012 21:00 20,2 C 9,2 C 0,0 UV-I 0,0 C 54 % 96 % 0 % 1010,0 hPa 0,0 l/m 1,8 km/h (1 Bft) 0,00 h 0,00 h 5,5 km/h (1 Bft)
03.06.2012 22:00 20,1 C 9,1 C 0,0 UV-I 0,0 C 54 % 96 % 0 % 1010,7 hPa 0,0 l/m 2,9 km/h (1 Bft) 0,00 h 0,00 h 4,8 km/h (1 Bft)
03.06.2012 23:00 20,0 C 9,0 C 0,0 UV-I 0,0 C 54 % 96 % 0 % 1011,0 hPa 0,0 l/m 0,0 km/h (0 Bft) 0,00 h 0,00 h 0,3 km/h (0 Bft)
Min-Datum _ 03.06.12 02.06.12 28.05.12 28.05.12 02.06.12 28.05.12 28.05.12 03.06.12 - 28.05.12 - - 28.05.12
_ Min-Zeit 23:08 06:16 00:00 00:00 17:00 18:34 00:00 13:16 - 00:00 - - 00:00
Minimum _ 20,0 C 7,5 C 0,0 UV-I 0,0 C 38 % 37 % 0 % 1004,6 hPa - 0,0 km/h (0 Bft) - - 0,0 km/h (0 Bft)
Max-Datum _ 28.05.12 28.05.12 02.06.12 02.06.12 31.05.12 03.06.12 28.05.12 01.06.12 03.06.12 29.05.12 28.05.12 31.05.12 31.05.12
_ Max-Zeit 17:02 16:36 10:30 10:30 23:50 11:22 08:14 14:16 10:42 13:34 08:14 13:28 18:38
Maximum _ 27,6 C 27,9 C 5,2 UV-I 11,4 C 57 % 96 % 100 % 1018,8 hPa 6,6 l/m 12,8 km/h
NW (3 Bft)
0,03 h 0,03 h 36,1 km/h
NW (5 Bft)
Durchschnitt _ 23,4 C 16,1 C 0,8 UV-I 1,9 C 51 % 75 % 33 % 1014,9 hPa #20,8 l/m 3,4 km/h (1 Bft) #47:18 h #12:24 h 6,7 km/h (2 Bft)
© 2012 W. Hausmann